Time;durP1;ratioP1;P1;durP2;ratioP2;P2;SDS_P1;SDS_P2;PMS_P1;PMS_P2;Temp;Humidity;BMP_temperature;BMP_pressure;BME280_temperature;BME280_humidity;BME280_pressure;Samples;Min_cycle;Max_cycle;Signal;HPM_P1;HPM_P2
2022/04/05 00:00:05;;;;;;;22.90;11.57;;;;;;;;;;5093207;28;20345;-75
2022/04/05 00:02:32;;;;;;;14.47;11.03;;;;;;;;;;5093749;28;20239;-75
2022/04/05 00:04:59;;;;;;;13.63;10.70;;;;;;;;;;5099834;28;20276;-76
2022/04/05 00:07:26;;;;;;;15.60;11.27;;;;;;;;;;5101288;28;20209;-75
2022/04/05 00:09:54;;;;;;;18.20;11.50;;;;;;;;;;5113975;28;20296;-76
2022/04/05 00:12:21;;;;;;;17.73;11.23;;;;;;;;;;5096999;28;20229;-75
2022/04/05 00:14:49;;;;;;;17.77;11.03;;;;;;;;;;5092972;28;20195;-75
2022/04/05 00:17:17;;;;;;;18.63;11.60;;;;;;;;;;5093103;28;20319;-75
2022/04/05 00:19:44;;;;;;;14.23;11.13;;;;;;;;;;5092767;28;20292;-76
2022/04/05 00:22:11;;;;;;;15.97;11.13;;;;;;;;;;5094402;28;20285;-76
2022/04/05 00:24:38;;;;;;;14.63;11.00;;;;;;;;;;5093212;28;20284;-75
2022/04/05 00:27:05;;;;;;;15.90;11.43;;;;;;;;;;5093505;28;20283;-75
2022/04/05 00:29:33;;;;;;;16.37;11.10;;;;;;;;;;5093137;28;20305;-76
2022/04/05 00:32:01;;;;;;;17.23;11.07;;;;;;;;;;5103833;28;20282;-76
2022/04/05 00:34:29;;;;;;;13.53;10.47;;;;;;;;;;5113021;28;20285;-75
2022/04/05 00:36:56;;;;;;;16.50;10.97;;;;;;;;;;5111426;28;20227;-76
2022/04/05 00:39:23;;;;;;;13.83;10.33;;;;;;;;;;5096279;28;20206;-76
2022/04/05 00:41:51;;;;;;;13.77;10.87;;;;;;;;;;5097925;28;20232;-76
2022/04/05 00:44:18;;;;;;;14.17;11.60;;;;;;;;;;5092564;28;20238;-75
2022/04/05 00:46:45;;;;;;;14.40;10.77;;;;;;;;;;5079611;28;20258;-76
2022/04/05 00:49:17;;;;;;;14.93;10.73;;;;;;;;;;5113189;28;20237;-74
2022/04/05 00:51:44;;;;;;;13.70;10.50;;;;;;;;;;5112981;28;20238;-77
2022/04/05 00:54:14;;;;;;;14.13;10.47;;;;;;;;;;5094295;28;20224;-77
2022/04/05 00:56:42;;;;;;;12.77;10.03;;;;;;;;;;5104969;28;20206;-76
2022/04/05 00:59:10;;;;;;;14.13;10.10;;;;;;;;;;5092234;28;20221;-76
2022/04/05 01:01:38;;;;;;;15.13;10.17;;;;;;;;;;5097964;28;20231;-76
2022/04/05 01:04:05;;;;;;;13.53;9.83;;;;;;;;;;5112377;28;20237;-76
2022/04/05 01:06:36;;;;;;;14.67;10.13;;;;;;;;;;5113248;28;20641;-76
2022/04/05 01:09:03;;;;;;;12.93;9.90;;;;;;;;;;5112296;28;20758;-76
2022/04/05 01:11:32;;;;;;;13.80;9.93;;;;;;;;;;5111725;28;20258;-76
2022/04/05 01:13:59;;;;;;;14.90;10.20;;;;;;;;;;5101830;28;20530;-76
2022/04/05 01:16:26;;;;;;;13.67;10.43;;;;;;;;;;5111603;28;20703;-76
2022/04/05 01:18:53;;;;;;;13.27;10.47;;;;;;;;;;5092425;28;20310;-76
2022/04/05 01:21:21;;;;;;;15.47;11.00;;;;;;;;;;5095768;28;20197;-76
2022/04/05 01:24:03;;;;;;;13.83;10.80;;;;;;;;;;5112521;28;20293;-76
2022/04/05 01:26:38;;;;;;;18.10;10.57;;;;;;;;;;5111350;28;20664;-76
2022/04/05 01:29:05;;;;;;;13.60;10.90;;;;;;;;;;5095947;28;20638;-76
2022/04/05 01:31:37;;;;;;;15.10;10.83;;;;;;;;;;5091765;28;20220;-76
2022/04/05 01:34:04;;;;;;;14.40;10.70;;;;;;;;;;5091988;28;20282;-76
2022/04/05 01:36:31;;;;;;;16.60;11.97;;;;;;;;;;5092068;28;20209;-76
2022/04/05 01:38:58;;;;;;;16.47;11.13;;;;;;;;;;5091881;28;20305;-76
2022/04/05 01:41:26;;;;;;;16.37;11.77;;;;;;;;;;5107677;28;20290;-76
2022/04/05 01:43:54;;;;;;;16.37;11.40;;;;;;;;;;5096383;28;20208;-76
2022/04/05 01:46:21;;;;;;;16.73;11.37;;;;;;;;;;5103842;28;20253;-76
2022/04/05 01:48:50;;;;;;;16.40;11.37;;;;;;;;;;5112080;28;20192;-76
2022/04/05 01:51:18;;;;;;;16.53;12.33;;;;;;;;;;5105455;28;20259;-76
2022/04/05 01:53:45;;;;;;;15.87;11.53;;;;;;;;;;5106296;28;20200;-76
2022/04/05 01:56:12;;;;;;;17.73;12.37;;;;;;;;;;5097787;28;20233;-76
2022/04/05 01:58:39;;;;;;;16.10;11.67;;;;;;;;;;5096322;28;20250;-76
2022/04/05 02:01:08;;;;;;;18.63;11.77;;;;;;;;;;5092191;28;20284;-76
2022/04/05 02:03:35;;;;;;;19.13;12.50;;;;;;;;;;5095236;28;20204;-76
2022/04/05 02:06:02;;;;;;;18.73;13.13;;;;;;;;;;5096176;28;20297;-76
2022/04/05 02:08:30;;;;;;;19.60;13.33;;;;;;;;;;5096088;28;20285;-76
2022/04/05 02:10:57;;;;;;;18.20;12.83;;;;;;;;;;5095467;28;20265;-77
2022/04/05 02:13:24;;;;;;;19.33;13.03;;;;;;;;;;5105207;28;20232;-76
2022/04/05 02:15:52;;;;;;;19.70;13.50;;;;;;;;;;5110449;28;20239;-76
2022/04/05 02:18:20;;;;;;;19.17;12.90;;;;;;;;;;5115457;28;20310;-76
2022/04/05 02:20:49;;;;;;;16.53;12.43;;;;;;;;;;5099360;28;20230;-76
2022/04/05 02:23:16;;;;;;;21.07;13.10;;;;;;;;;;5095919;28;20229;-76
2022/04/05 02:25:43;;;;;;;18.30;13.03;;;;;;;;;;5095384;28;20233;-76
2022/04/05 02:28:11;;;;;;;18.07;12.93;;;;;;;;;;5095268;28;20699;-76
2022/04/05 02:30:39;;;;;;;17.60;12.30;;;;;;;;;;5105094;28;20247;-76
2022/04/05 02:33:06;;;;;;;17.00;12.30;;;;;;;;;;5106517;28;20228;-76
2022/04/05 02:35:36;;;;;;;21.43;13.20;;;;;;;;;;5115918;28;20203;-76
2022/04/05 02:38:04;;;;;;;18.03;13.17;;;;;;;;;;5100038;28;20226;-76
2022/04/05 02:40:31;;;;;;;17.80;12.53;;;;;;;;;;5099153;28;20229;-77
2022/04/05 02:42:59;;;;;;;20.67;13.47;;;;;;;;;;5101634;28;20236;-76
2022/04/05 02:45:26;;;;;;;19.93;13.47;;;;;;;;;;5094750;28;20288;-76
2022/04/05 02:47:53;;;;;;;17.73;12.93;;;;;;;;;;5095580;28;20229;-76
2022/04/05 02:50:20;;;;;;;25.73;13.57;;;;;;;;;;5095599;28;20234;-76
2022/04/05 02:52:49;;;;;;;21.67;13.27;;;;;;;;;;5110316;28;20237;-76
2022/04/05 02:55:17;;;;;;;17.77;13.07;;;;;;;;;;5094967;28;20289;-76
2022/04/05 02:57:45;;;;;;;17.63;12.93;;;;;;;;;;5101869;28;20633;-76
2022/04/05 03:00:12;;;;;;;19.10;12.97;;;;;;;;;;5112706;28;20226;-76
2022/04/05 03:02:40;;;;;;;20.53;13.10;;;;;;;;;;5094622;28;20288;-76
2022/04/05 03:05:08;;;;;;;18.47;12.80;;;;;;;;;;5094428;28;20281;-76
2022/04/05 03:07:36;;;;;;;21.97;12.30;;;;;;;;;;5113588;28;20245;-76
2022/04/05 03:10:06;;;;;;;21.10;13.60;;;;;;;;;;5100595;28;20713;-76
2022/04/05 03:12:34;;;;;;;20.43;13.07;;;;;;;;;;5094022;28;20206;-76
2022/04/05 03:15:01;;;;;;;21.07;13.20;;;;;;;;;;5093969;28;20205;-76
2022/04/05 03:17:29;;;;;;;21.77;13.87;;;;;;;;;;5098850;28;20201;-76
2022/04/05 03:19:58;;;;;;;21.00;13.63;;;;;;;;;;5097687;28;20259;-76
2022/04/05 03:22:25;;;;;;;23.00;13.00;;;;;;;;;;5101082;28;20291;-76
2022/04/05 03:24:52;;;;;;;23.90;14.20;;;;;;;;;;5093940;28;20241;-76
2022/04/05 03:27:21;;;;;;;21.77;13.77;;;;;;;;;;5094189;28;20241;-76
2022/04/05 03:29:48;;;;;;;20.70;14.20;;;;;;;;;;5094423;28;20232;-76
2022/04/05 03:32:15;;;;;;;23.57;14.03;;;;;;;;;;5093573;28;20364;-76
2022/04/05 03:34:43;;;;;;;20.90;14.37;;;;;;;;;;5093238;28;20237;-76
2022/04/05 03:37:10;;;;;;;23.83;15.00;;;;;;;;;;5093206;28;20289;-76
2022/04/05 03:39:39;;;;;;;24.20;15.93;;;;;;;;;;5094051;28;20223;-76
2022/04/05 03:42:06;;;;;;;24.37;15.10;;;;;;;;;;5093844;28;20237;-76
2022/04/05 03:44:35;;;;;;;22.30;14.47;;;;;;;;;;5096753;28;20233;-76
2022/04/05 03:47:02;;;;;;;21.30;13.77;;;;;;;;;;5097377;28;20319;-76
2022/04/05 03:49:29;;;;;;;21.23;14.33;;;;;;;;;;5093957;28;20229;-76
2022/04/05 03:51:56;;;;;;;20.80;14.60;;;;;;;;;;5093631;28;20229;-76
2022/04/05 03:54:23;;;;;;;21.13;15.17;;;;;;;;;;5093812;28;20281;-76
2022/04/05 03:56:51;;;;;;;21.77;14.53;;;;;;;;;;5098963;28;20225;-76
2022/04/05 03:59:18;;;;;;;23.27;15.07;;;;;;;;;;5093740;28;20262;-76
2022/04/05 04:01:46;;;;;;;23.17;15.10;;;;;;;;;;5105324;28;20286;-76
2022/04/05 04:04:13;;;;;;;24.67;15.27;;;;;;;;;;5099262;28;20202;-76
2022/04/05 04:06:41;;;;;;;25.07;15.47;;;;;;;;;;5098860;28;20229;-76
2022/04/05 04:09:08;;;;;;;22.90;15.33;;;;;;;;;;5114031;28;20293;-76
2022/04/05 04:11:36;;;;;;;24.13;14.23;;;;;;;;;;5095229;28;20827;-76
2022/04/05 04:14:04;;;;;;;23.00;14.17;;;;;;;;;;5093479;28;20214;-76
2022/04/05 04:16:31;;;;;;;23.53;14.93;;;;;;;;;;5113270;28;20209;-76
2022/04/05 04:19:00;;;;;;;24.77;14.63;;;;;;;;;;5110828;28;20307;-76
2022/04/05 04:21:27;;;;;;;25.93;14.97;;;;;;;;;;5111466;28;20343;-76
2022/04/05 04:23:54;;;;;;;24.63;15.27;;;;;;;;;;5112871;28;20287;-76
2022/04/05 04:26:22;;;;;;;27.57;15.67;;;;;;;;;;5112843;28;20293;-77
2022/04/05 04:28:51;;;;;;;23.60;14.83;;;;;;;;;;5095455;28;20753;-76
2022/04/05 04:31:18;;;;;;;25.47;14.70;;;;;;;;;;5093647;28;20201;-76
2022/04/05 04:33:45;;;;;;;24.13;14.93;;;;;;;;;;5106198;28;20248;-76
2022/04/05 04:36:15;;;;;;;24.87;15.03;;;;;;;;;;5111189;28;20287;-76
2022/04/05 04:38:42;;;;;;;21.87;14.53;;;;;;;;;;5094946;28;20304;-76
2022/04/05 04:41:09;;;;;;;21.33;14.33;;;;;;;;;;5092811;28;20226;-77
2022/04/05 04:43:36;;;;;;;20.70;13.87;;;;;;;;;;5092716;28;20823;-76
2022/04/05 04:46:04;;;;;;;24.60;14.90;;;;;;;;;;5109302;28;20765;-76
2022/04/05 04:48:31;;;;;;;24.63;14.67;;;;;;;;;;5083425;28;20201;-76
2022/04/05 04:50:59;;;;;;;22.23;14.00;;;;;;;;;;5102427;28;20303;-76
2022/04/05 04:53:27;;;;;;;22.30;13.97;;;;;;;;;;5093711;28;20290;-76
2022/04/05 04:55:54;;;;;;;21.70;13.87;;;;;;;;;;5098465;28;20285;-76
2022/04/05 04:58:22;;;;;;;23.40;14.13;;;;;;;;;;5112674;28;20231;-76
2022/04/05 05:00:49;;;;;;;22.17;13.70;;;;;;;;;;5095568;28;20233;-76
2022/04/05 05:03:18;;;;;;;22.10;14.20;;;;;;;;;;5092428;28;20194;-76
2022/04/05 05:05:45;;;;;;;22.80;14.70;;;;;;;;;;5112458;28;20254;-76
2022/04/05 05:08:12;;;;;;;23.83;14.23;;;;;;;;;;5109363;28;20287;-77
2022/04/05 05:10:41;;;;;;;23.13;13.47;;;;;;;;;;5091967;28;20661;-77
2022/04/05 05:13:10;;;;;;;20.47;13.30;;;;;;;;;;5108002;28;20284;-76
2022/04/05 05:15:37;;;;;;;20.33;13.33;;;;;;;;;;5095812;28;20202;-76
2022/04/05 05:18:04;;;;;;;18.93;12.93;;;;;;;;;;5107772;28;20296;-77
2022/04/05 05:20:31;;;;;;;20.47;13.40;;;;;;;;;;5112528;28;20293;-76
2022/04/05 05:22:59;;;;;;;22.40;13.33;;;;;;;;;;5112837;28;20237;-76
2022/04/05 05:25:26;;;;;;;20.07;12.67;;;;;;;;;;5112456;28;20207;-76
2022/04/05 05:27:55;;;;;;;18.63;12.43;;;;;;;;;;5109218;28;20309;-76
2022/04/05 05:30:23;;;;;;;18.77;12.53;;;;;;;;;;5106249;28;20205;-76
2022/04/05 05:32:51;;;;;;;20.63;13.07;;;;;;;;;;5105336;28;20206;-76
2022/04/05 05:35:18;;;;;;;20.87;13.50;;;;;;;;;;5092303;28;20199;-77
2022/04/05 05:37:46;;;;;;;16.87;12.07;;;;;;;;;;5107134;28;20577;-77
2022/04/05 05:40:14;;;;;;;21.30;13.37;;;;;;;;;;5092345;28;20331;-77
2022/04/05 05:42:51;;;;;;;18.80;12.93;;;;;;;;;;5092035;28;20205;-77
2022/04/05 05:45:20;;;;;;;21.30;12.87;;;;;;;;;;5107482;28;20594;-76
2022/04/05 05:47:47;;;;;;;21.80;13.53;;;;;;;;;;5106719;28;20289;-76
2022/04/05 05:50:14;;;;;;;20.43;12.60;;;;;;;;;;5108032;28;20736;-76
2022/04/05 05:52:42;;;;;;;20.63;13.03;;;;;;;;;;5110526;28;20284;-76
2022/04/05 05:55:10;;;;;;;19.37;12.70;;;;;;;;;;5101610;28;20190;-76
2022/04/05 05:57:37;;;;;;;22.47;13.77;;;;;;;;;;5103384;28;20859;-76
2022/04/05 06:00:07;;;;;;;21.90;13.77;;;;;;;;;;5106711;28;20229;-76
2022/04/05 06:02:37;;;;;;;19.57;14.07;;;;;;;;;;5108980;28;20203;-76
2022/04/05 06:05:04;;;;;;;24.90;14.43;;;;;;;;;;5103390;28;20676;-76
2022/04/05 06:07:32;;;;;;;20.13;14.07;;;;;;;;;;5109790;28;20225;-76
2022/04/05 06:09:59;;;;;;;22.80;14.20;;;;;;;;;;5095334;28;20284;-76
2022/04/05 06:12:26;;;;;;;22.33;14.57;;;;;;;;;;5099031;28;20222;-76
2022/04/05 06:14:53;;;;;;;24.33;14.93;;;;;;;;;;5092173;28;20226;-76
2022/04/05 06:17:20;;;;;;;25.63;15.50;;;;;;;;;;5105190;28;20281;-76
2022/04/05 06:19:49;;;;;;;22.07;13.40;;;;;;;;;;5100138;28;20313;-76
2022/04/05 06:22:16;;;;;;;23.93;14.63;;;;;;;;;;5105198;28;20237;-77
2022/04/05 06:24:43;;;;;;;20.47;13.60;;;;;;;;;;5091292;28;20226;-76
2022/04/05 06:27:11;;;;;;;24.10;14.43;;;;;;;;;;5091209;28;20234;-76
2022/04/05 06:29:38;;;;;;;20.63;13.43;;;;;;;;;;5109164;28;20280;-76
2022/04/05 06:32:05;;;;;;;22.67;14.30;;;;;;;;;;5109129;28;20310;-76
2022/04/05 06:34:32;;;;;;;21.13;14.13;;;;;;;;;;5105346;28;20236;-76
2022/04/05 06:37:01;;;;;;;26.50;14.17;;;;;;;;;;5097922;28;20562;-76
2022/04/05 06:39:29;;;;;;;25.80;14.47;;;;;;;;;;5103845;28;20301;-76
2022/04/05 06:41:56;;;;;;;19.23;13.07;;;;;;;;;;5106235;28;20578;-76
2022/04/05 06:44:23;;;;;;;19.90;12.90;;;;;;;;;;5105203;28;20678;-76
2022/04/05 06:46:51;;;;;;;21.70;12.50;;;;;;;;;;5109300;28;20229;-77
2022/04/05 06:49:18;;;;;;;20.37;11.67;;;;;;;;;;5098932;28;20649;-76
2022/04/05 06:51:45;;;;;;;21.87;12.03;;;;;;;;;;5101345;28;20199;-77
2022/04/05 06:54:14;;;;;;;20.33;12.00;;;;;;;;;;5113946;28;20687;-76
2022/04/05 06:56:41;;;;;;;21.73;11.60;;;;;;;;;;5111080;28;20283;-76
2022/04/05 06:59:08;;;;;;;20.33;11.90;;;;;;;;;;5101626;28;20236;-76
2022/04/05 07:01:36;;;;;;;17.43;11.30;;;;;;;;;;5097965;28;20226;-76
2022/04/05 07:04:03;;;;;;;19.23;12.00;;;;;;;;;;5097575;28;20285;-77
2022/04/05 07:06:31;;;;;;;18.93;11.07;;;;;;;;;;5114582;28;20203;-76
2022/04/05 07:08:58;;;;;;;16.17;10.90;;;;;;;;;;5108667;28;20222;-76
2022/04/05 07:11:26;;;;;;;17.37;10.33;;;;;;;;;;5096695;28;20685;-76
2022/04/05 07:13:54;;;;;;;17.63;10.67;;;;;;;;;;5103153;28;20278;-76
2022/04/05 07:16:21;;;;;;;17.50;10.37;;;;;;;;;;5103039;27;20202;-77
2022/04/05 07:18:49;;;;;;;20.57;10.60;;;;;;;;;;5094545;28;20197;-76
2022/04/05 07:21:18;;;;;;;18.93;10.03;;;;;;;;;;5110954;28;20602;-77
2022/04/05 07:23:46;;;;;;;24.27;10.73;;;;;;;;;;5102720;28;20198;-76
2022/04/05 07:26:14;;;;;;;19.60;10.03;;;;;;;;;;5108213;28;20196;-76
2022/04/05 07:28:42;;;;;;;18.00;10.27;;;;;;;;;;5103517;28;20893;-76
2022/04/05 07:31:09;;;;;;;17.50;9.97;;;;;;;;;;5114746;28;20198;-76
2022/04/05 07:33:36;;;;;;;16.10;9.87;;;;;;;;;;5099271;28;20299;-76
2022/04/05 07:36:04;;;;;;;13.27;9.27;;;;;;;;;;5094735;28;20251;-76
2022/04/05 07:38:31;;;;;;;17.80;8.70;;;;;;;;;;5106549;28;20281;-76
2022/04/05 07:40:58;;;;;;;16.73;9.00;;;;;;;;;;5109838;28;20255;-76
2022/04/05 07:43:27;;;;;;;18.37;8.13;;;;;;;;;;5113625;28;20246;-76
2022/04/05 07:45:56;;;;;;;20.30;8.37;;;;;;;;;;5103863;28;20211;-76
2022/04/05 07:48:25;;;;;;;17.17;8.20;;;;;;;;;;5095121;28;20204;-76
2022/04/05 07:50:52;;;;;;;16.30;8.60;;;;;;;;;;5113970;28;20255;-77
2022/04/05 07:53:19;;;;;;;14.70;8.13;;;;;;;;;;5098662;28;20198;-76
2022/04/05 07:55:47;;;;;;;12.17;8.10;;;;;;;;;;5109913;28;20268;-77
2022/04/05 07:58:14;;;;;;;14.87;7.63;;;;;;;;;;5097617;28;20283;-77
2022/04/05 08:00:41;;;;;;;15.23;8.00;;;;;;;;;;5093331;28;20305;-77
2022/04/05 08:03:10;;;;;;;14.40;7.93;;;;;;;;;;5110382;28;20284;-77
2022/04/05 08:05:37;;;;;;;16.63;7.50;;;;;;;;;;5103955;28;20300;-76
2022/04/05 08:08:05;;;;;;;13.40;7.40;;;;;;;;;;5097480;28;20229;-77
2022/04/05 08:10:32;;;;;;;15.73;7.43;;;;;;;;;;5093318;28;20756;-77
2022/04/05 08:13:00;;;;;;;15.37;7.83;;;;;;;;;;5095450;28;20225;-78
2022/04/05 08:15:27;;;;;;;12.50;7.63;;;;;;;;;;5110973;28;20205;-78
2022/04/05 08:17:54;;;;;;;13.90;6.83;;;;;;;;;;5093762;28;20285;-78
2022/04/05 08:20:23;;;;;;;14.83;6.70;;;;;;;;;;5104855;28;20224;-77
2022/04/05 08:22:50;;;;;;;12.33;6.50;;;;;;;;;;5102188;28;20281;-76
2022/04/05 08:25:18;;;;;;;13.20;6.23;;;;;;;;;;5102636;28;20288;-77
2022/04/05 08:27:46;;;;;;;12.43;6.97;;;;;;;;;;5109034;28;20294;-77
2022/04/05 08:30:15;;;;;;;13.30;7.30;;;;;;;;;;5113581;28;20629;-77
2022/04/05 08:32:43;;;;;;;12.67;6.90;;;;;;;;;;5113026;28;20202;-77
2022/04/05 08:35:12;;;;;;;14.20;7.47;;;;;;;;;;5098045;28;20253;-77
2022/04/05 08:37:41;;;;;;;16.70;8.40;;;;;;;;;;5096503;28;20229;-77
2022/04/05 08:40:09;;;;;;;15.13;7.87;;;;;;;;;;5093141;28;20311;-77
2022/04/05 08:42:36;;;;;;;17.77;8.07;;;;;;;;;;5101662;28;20617;-77
2022/04/05 08:45:04;;;;;;;17.87;7.50;;;;;;;;;;5104294;28;20255;-78
2022/04/05 08:47:32;;;;;;;16.70;7.33;;;;;;;;;;5093739;28;20284;-79
2022/04/05 08:49:59;;;;;;;11.73;7.17;;;;;;;;;;5112121;28;20269;-79
2022/04/05 08:52:26;;;;;;;12.53;6.87;;;;;;;;;;5112404;28;20219;-79
2022/04/05 08:54:55;;;;;;;11.83;6.87;;;;;;;;;;5111200;28;20193;-79
2022/04/05 08:57:22;;;;;;;13.57;6.47;;;;;;;;;;5111282;28;20225;-79
2022/04/05 08:59:49;;;;;;;16.50;6.87;;;;;;;;;;5092757;28;20303;-79
2022/04/05 09:02:24;;;;;;;14.97;6.77;;;;;;;;;;5105466;28;20222;-78
2022/04/05 09:04:52;;;;;;;11.77;7.20;;;;;;;;;;5102349;28;20286;-78
2022/04/05 09:07:20;;;;;;;15.23;8.00;;;;;;;;;;5109838;27;20198;-78
2022/04/05 09:09:47;;;;;;;15.33;8.00;;;;;;;;;;5097938;28;20881;-79
2022/04/05 09:12:18;;;;;;;14.93;7.03;;;;;;;;;;5109538;28;20278;-79
2022/04/05 09:14:46;;;;;;;15.03;6.80;;;;;;;;;;5097181;28;20282;-79
2022/04/05 09:17:13;;;;;;;15.20;7.10;;;;;;;;;;5091706;28;20221;-79
2022/04/05 09:19:42;;;;;;;14.87;6.83;;;;;;;;;;5096236;28;20256;-79
2022/04/05 09:22:10;;;;;;;13.93;6.03;;;;;;;;;;5094661;28;20198;-79
2022/04/05 09:24:38;;;;;;;14.10;6.30;;;;;;;;;;5111579;28;20247;-79
2022/04/05 09:27:05;;;;;;;11.03;5.30;;;;;;;;;;5112349;28;20201;-80
2022/04/05 09:29:40;;;;;;;15.00;5.57;;;;;;;;;;5111877;28;20233;-79
2022/04/05 09:32:08;;;;;;;12.03;5.50;;;;;;;;;;5103715;28;20232;-79
2022/04/05 09:34:48;;;;;;;10.03;5.57;;;;;;;;;;5111758;28;20284;-79
2022/04/05 09:37:15;;;;;;;12.17;5.90;;;;;;;;;;5093829;28;20630;-79
2022/04/05 09:39:43;;;;;;;12.37;5.27;;;;;;;;;;5091502;28;20305;-79
2022/04/05 09:42:11;;;;;;;10.97;5.03;;;;;;;;;;5098942;28;20205;-79
2022/04/05 09:44:39;;;;;;;8.97;5.27;;;;;;;;;;5108543;28;20259;-79
2022/04/05 09:47:09;;;;;;;7.70;5.10;;;;;;;;;;5097607;28;20204;-79
2022/04/05 09:49:38;;;;;;;11.47;5.30;;;;;;;;;;5101649;28;20205;-79
2022/04/05 09:52:22;;;;;;;10.50;5.10;;;;;;;;;;5093687;28;20198;-79
2022/04/05 09:54:49;;;;;;;8.33;5.30;;;;;;;;;;5102079;28;20189;-79
2022/04/05 09:57:28;;;;;;;10.17;5.23;;;;;;;;;;5104656;28;20208;-79
2022/04/05 10:00:07;;;;;;;9.40;5.40;;;;;;;;;;5103426;28;20271;-79
2022/04/05 10:02:36;;;;;;;9.30;4.73;;;;;;;;;;5108883;28;20194;-79
2022/04/05 10:05:05;;;;;;;18.00;5.60;;;;;;;;;;5110200;28;20788;-79
2022/04/05 10:07:33;;;;;;;12.80;5.33;;;;;;;;;;5110194;28;20611;-79
2022/04/05 10:10:01;;;;;;;19.70;6.17;;;;;;;;;;5108455;28;21143;-79
2022/04/05 10:12:28;;;;;;;12.47;5.30;;;;;;;;;;5101118;28;20616;-79
2022/04/05 10:14:56;;;;;;;8.13;4.87;;;;;;;;;;5102131;28;20273;-79
2022/04/05 10:17:26;;;;;;;10.47;5.30;;;;;;;;;;5106075;28;20232;-79
2022/04/05 10:19:56;;;;;;;13.27;5.90;;;;;;;;;;5105358;28;20234;-78
2022/04/05 10:22:23;;;;;;;22.23;7.10;;;;;;;;;;5100197;28;20202;-79
2022/04/05 10:24:52;;;;;;;11.03;5.60;;;;;;;;;;5095063;28;20225;-79
2022/04/05 10:27:20;;;;;;;10.77;4.90;;;;;;;;;;5111122;28;20198;-79
2022/04/05 10:29:47;;;;;;;9.50;5.17;;;;;;;;;;5115152;28;20232;-79
2022/04/05 10:32:20;;;;;;;10.17;5.50;;;;;;;;;;5115614;28;20201;-79
2022/04/05 10:34:51;;;;;;;8.03;5.40;;;;;;;;;;5108533;28;20238;-79
2022/04/05 10:37:20;;;;;;;9.93;5.77;;;;;;;;;;5112831;28;20283;-79
2022/04/05 10:40:02;;;;;;;10.60;5.43;;;;;;;;;;5107449;28;20692;-79
2022/04/05 10:42:34;;;;;;;9.77;5.43;;;;;;;;;;5093783;28;20638;-79
2022/04/05 10:45:10;;;;;;;9.47;5.07;;;;;;;;;;5114566;28;20267;-79
2022/04/05 10:47:52;;;;;;;4.83;4.33;;;;;;;;;;5104051;28;20540;-80
2022/04/05 10:50:20;;;;;;;8.97;5.03;;;;;;;;;;5094830;28;20220;-79
2022/04/05 10:52:49;;;;;;;7.93;4.67;;;;;;;;;;5099071;28;20684;-79
2022/04/05 10:55:20;;;;;;;9.53;4.47;;;;;;;;;;5098474;28;20308;-80
2022/04/05 10:57:47;;;;;;;8.53;4.50;;;;;;;;;;5111770;28;20193;-81
2022/04/05 11:00:23;;;;;;;5.70;3.83;;;;;;;;;;5105512;28;20260;-80
2022/04/05 11:03:04;;;;;;;8.57;4.17;;;;;;;;;;5105811;28;20202;-78
2022/04/05 11:05:40;;;;;;;9.50;3.60;;;;;;;;;;5102116;28;20680;-78
2022/04/05 11:08:11;;;;;;;7.17;3.57;;;;;;;;;;5096635;28;20224;-79
2022/04/05 11:11:04;;;;;;;7.23;3.70;;;;;;;;;;5104106;28;20253;-79
2022/04/05 11:13:33;;;;;;;6.33;4.30;;;;;;;;;;5106186;28;20229;-78
2022/04/05 11:16:00;;;;;;;7.97;4.27;;;;;;;;;;5099907;28;20194;-78
2022/04/05 11:18:29;;;;;;;8.90;4.63;;;;;;;;;;5114162;28;20240;-79
2022/04/05 11:20:57;;;;;;;6.90;4.10;;;;;;;;;;5106789;28;20241;-79
2022/04/05 11:23:39;;;;;;;6.93;4.33;;;;;;;;;;5094885;28;20202;-80
2022/04/05 11:26:21;;;;;;;12.47;5.63;;;;;;;;;;5094707;28;20251;-79
2022/04/05 11:28:50;;;;;;;14.07;5.07;;;;;;;;;;5096729;28;20212;-79
2022/04/05 11:31:27;;;;;;;14.30;5.50;;;;;;;;;;5108017;28;20274;-78
2022/04/05 11:33:55;;;;;;;17.57;5.30;;;;;;;;;;5105497;28;20285;-79
2022/04/05 11:36:25;;;;;;;8.97;4.60;;;;;;;;;;5106466;28;20199;-79
2022/04/05 11:38:56;;;;;;;11.83;4.80;;;;;;;;;;5112749;28;20255;-79
2022/04/05 11:41:25;;;;;;;11.13;4.83;;;;;;;;;;5109314;28;20214;-79
2022/04/05 11:43:54;;;;;;;10.43;4.63;;;;;;;;;;5114386;28;20206;-79
2022/04/05 11:46:23;;;;;;;6.13;4.00;;;;;;;;;;5114139;28;20599;-78
2022/04/05 11:48:53;;;;;;;10.00;4.30;;;;;;;;;;5113822;28;20590;-78
2022/04/05 11:51:22;;;;;;;9.73;3.80;;;;;;;;;;5097111;28;20203;-79
2022/04/05 11:53:49;;;;;;;12.20;4.47;;;;;;;;;;5099710;28;20249;-78
2022/04/05 11:56:18;;;;;;;7.93;4.27;;;;;;;;;;5111981;28;20256;-78
2022/04/05 11:58:47;;;;;;;7.63;4.23;;;;;;;;;;5113686;28;20376;-78
2022/04/05 12:01:16;;;;;;;6.17;3.90;;;;;;;;;;5110238;28;20214;-78
2022/04/05 12:03:48;;;;;;;7.60;4.20;;;;;;;;;;5109044;28;20237;-78
2022/04/05 12:06:18;;;;;;;8.97;4.57;;;;;;;;;;5093810;28;20202;-78
2022/04/05 12:08:45;;;;;;;8.30;4.50;;;;;;;;;;5093589;28;20226;-78
2022/04/05 12:11:13;;;;;;;11.60;4.40;;;;;;;;;;5096248;28;20201;-78
2022/04/05 12:13:40;;;;;;;13.90;4.43;;;;;;;;;;5109867;28;20290;-78
2022/04/05 12:16:07;;;;;;;10.20;4.30;;;;;;;;;;5092838;28;20282;-78
2022/04/05 12:18:36;;;;;;;8.73;4.13;;;;;;;;;;5103510;28;20208;-78
2022/04/05 12:21:04;;;;;;;9.27;4.00;;;;;;;;;;5097733;28;20320;-78
2022/04/05 12:23:33;;;;;;;9.40;4.20;;;;;;;;;;5102430;28;20198;-78
2022/04/05 12:26:18;;;;;;;8.97;4.03;;;;;;;;;;5106815;28;20233;-78
2022/04/05 12:28:46;;;;;;;8.37;4.67;;;;;;;;;;5096237;28;20271;-78
2022/04/05 12:31:16;;;;;;;13.93;4.40;;;;;;;;;;5098653;28;20195;-78
2022/04/05 12:33:53;;;;;;;12.23;4.60;;;;;;;;;;5104077;28;20658;-78
2022/04/05 12:36:21;;;;;;;7.53;4.83;;;;;;;;;;5113846;28;20292;-78
2022/04/05 12:38:48;;;;;;;12.93;5.10;;;;;;;;;;5113299;28;20201;-78
2022/04/05 12:41:16;;;;;;;12.80;4.80;;;;;;;;;;5112703;28;20712;-78
2022/04/05 12:43:43;;;;;;;20.00;5.70;;;;;;;;;;5112872;28;20288;-77
2022/04/05 12:46:12;;;;;;;17.80;5.47;;;;;;;;;;5112832;28;20201;-78
2022/04/05 12:48:40;;;;;;;18.23;5.50;;;;;;;;;;5112867;28;20251;-80
2022/04/05 12:51:09;;;;;;;17.00;5.13;;;;;;;;;;5112885;28;20235;-77
2022/04/05 12:53:38;;;;;;;11.23;4.93;;;;;;;;;;5105804;28;20198;-80
2022/04/05 12:56:08;;;;;;;10.27;4.70;;;;;;;;;;5096109;28;20199;-80
2022/04/05 12:58:39;;;;;;;14.03;4.93;;;;;;;;;;5092783;28;20222;-80
2022/04/05 13:01:16;;;;;;;15.53;4.60;;;;;;;;;;5108805;28;20249;-79
2022/04/05 13:03:43;;;;;;;12.33;4.90;;;;;;;;;;5094128;28;20226;-79
2022/04/05 13:06:20;;;;;;;7.87;4.67;;;;;;;;;;5111261;28;20733;-79
2022/04/05 13:08:48;;;;;;;13.37;5.63;;;;;;;;;;5098601;28;20194;-80
2022/04/05 13:11:22;;;;;;;11.43;5.50;;;;;;;;;;5092660;28;20218;-79
2022/04/05 13:13:50;;;;;;;11.30;5.40;;;;;;;;;;5108009;28;20630;-79
2022/04/05 13:16:17;;;;;;;25.87;6.70;;;;;;;;;;5111310;28;20254;-79
2022/04/05 13:18:45;;;;;;;13.73;5.00;;;;;;;;;;5101657;28;20621;-80
2022/04/05 13:21:15;;;;;;;10.50;4.80;;;;;;;;;;5111851;28;20229;-79
2022/04/05 13:23:42;;;;;;;11.63;5.23;;;;;;;;;;5112444;28;20274;-79
2022/04/05 13:26:23;;;;;;;10.83;5.07;;;;;;;;;;5111829;28;20285;-79
2022/04/05 13:28:50;;;;;;;10.90;4.87;;;;;;;;;;5092228;28;20285;-79
2022/04/05 13:31:19;;;;;;;13.33;5.13;;;;;;;;;;5091297;28;20229;-79
2022/04/05 13:33:46;;;;;;;13.83;5.67;;;;;;;;;;5092398;28;20259;-79
2022/04/05 13:36:15;;;;;;;13.67;5.03;;;;;;;;;;5091527;28;20206;-79
2022/04/05 13:38:42;;;;;;;14.97;5.10;;;;;;;;;;5103619;28;20373;-79
2022/04/05 13:41:11;;;;;;;13.73;4.93;;;;;;;;;;5111530;28;20709;-79
2022/04/05 13:43:38;;;;;;;9.17;4.73;;;;;;;;;;5101644;28;20205;-79
2022/04/05 13:46:05;;;;;;;18.47;5.43;;;;;;;;;;5097267;28;20226;-79
2022/04/05 13:48:33;;;;;;;22.70;6.33;;;;;;;;;;5112290;28;20274;-80
2022/04/05 13:51:00;;;;;;;21.33;5.57;;;;;;;;;;5103115;28;20304;-79
2022/04/05 13:53:29;;;;;;;13.30;5.10;;;;;;;;;;5091375;28;20301;-79
2022/04/05 13:55:57;;;;;;;19.17;5.03;;;;;;;;;;5091653;28;20302;-79
2022/04/05 13:58:24;;;;;;;27.20;6.30;;;;;;;;;;5097503;28;20294;-80
2022/04/05 14:00:51;;;;;;;19.73;6.10;;;;;;;;;;5104438;28;20245;-79
2022/04/05 14:03:19;;;;;;;8.67;4.67;;;;;;;;;;5099097;28;20282;-80
2022/04/05 14:05:46;;;;;;;15.33;5.40;;;;;;;;;;5115283;28;20768;-80
2022/04/05 14:08:13;;;;;;;22.43;5.70;;;;;;;;;;5103067;28;20196;-80
2022/04/05 14:10:42;;;;;;;11.70;4.67;;;;;;;;;;5102610;28;20250;-78
2022/04/05 14:13:09;;;;;;;13.83;5.07;;;;;;;;;;5103527;28;20243;-78
2022/04/05 14:15:37;;;;;;;13.07;5.37;;;;;;;;;;5094874;28;20283;-78
2022/04/05 14:18:04;;;;;;;12.70;5.03;;;;;;;;;;5095342;28;20205;-76
2022/04/05 14:20:31;;;;;;;14.53;5.00;;;;;;;;;;5107315;28;20241;-78
2022/04/05 14:22:58;;;;;;;20.47;6.10;;;;;;;;;;5100490;28;20305;-77
2022/04/05 14:25:25;;;;;;;17.83;7.53;;;;;;;;;;5108755;28;20222;-78
2022/04/05 14:27:54;;;;;;;20.37;7.40;;;;;;;;;;5095507;28;20249;-77
2022/04/05 14:30:23;;;;;;;17.63;6.17;;;;;;;;;;5106641;28;20197;-78
2022/04/05 14:32:50;;;;;;;19.67;7.00;;;;;;;;;;5114839;28;20193;-78